Tamanrasset, Algeria
Current Conditions -  °F | °C
As of 8:00 AM on Saturday 25 Oct 2014 (Local Time) from DAAT Reporting Station
Clear Clear  
Wind Chill: 64°   Ceiling: Unl
Heat Index: 64°   Visibility: 6mi
Dew Point: 28°   Wind: 3mph
Humidity: 26%   Direction: NA
Pressure: 30.15"   Gusts: NA
Location:  22.78°N, 5.52°E
Report Text: DAAT 250700Z VRB03KT CAVOK 18/M02 Q1021
Loading
Personal Weather Stations






























Interactive Weather Map New forecast layout! Learn more

10-Day Weather Forecast

Advertisements
Track Severe Weather on mobile